Time;durP1;ratioP1;P1;durP2;ratioP2;P2;SDS_P1;SDS_P2;PMS_P1;PMS_P2;Temp;Humidity;BMP_temperature;BMP_pressure;BME280_temperature;BME280_humidity;BME280_pressure;Samples;Min_cycle;Max_cycle;Signal;HPM_P1;HPM_P2
2021/05/27 00:00:20;;;;;;;24.70;13.23;;;10.80;99.90;;;;;;5260208;27;20114;-62
2021/05/27 00:02:47;;;;;;;26.53;11.47;;;10.90;99.90;;;;;;5261088;27;20513;-61
2021/05/27 00:05:14;;;;;;;26.77;12.13;;;10.80;99.90;;;;;;5260396;27;20155;-64
2021/05/27 00:07:43;;;;;;;26.63;13.10;;;10.70;99.90;;;;;;5260542;27;20524;-65
2021/05/27 00:10:12;;;;;;;31.77;12.10;;;10.80;99.90;;;;;;5260469;27;20130;-64
2021/05/27 00:12:39;;;;;;;25.03;12.53;;;10.90;99.90;;;;;;5262064;27;20179;-63
2021/05/27 00:15:09;;;;;;;23.03;11.40;;;10.90;99.90;;;;;;5260337;27;20170;-62
2021/05/27 00:17:35;;;;;;;26.17;10.57;;;10.80;99.90;;;;;;5261106;27;20127;-60
2021/05/27 00:20:06;;;;;;;28.07;10.90;;;10.80;99.90;;;;;;5260296;27;20131;-62
2021/05/27 00:22:33;;;;;;;33.43;11.13;;;10.80;99.90;;;;;;5260291;27;20175;-63
2021/05/27 00:24:59;;;;;;;23.03;11.53;;;10.70;99.90;;;;;;5260608;27;20139;-63
2021/05/27 00:27:26;;;;;;;29.70;10.33;;;10.60;99.90;;;;;;5260215;27;20135;-63
2021/05/27 00:29:53;;;;;;;31.67;12.13;;;10.60;99.90;;;;;;5260681;27;20111;-61
2021/05/27 00:32:19;;;;;;;28.37;10.70;;;10.60;99.90;;;;;;5261233;27;20109;-63
2021/05/27 00:34:46;;;;;;;24.63;10.70;;;10.60;99.90;;;;;;5260591;27;20150;-61
2021/05/27 00:37:15;;;;;;;21.90;10.60;;;10.60;99.90;;;;;;5260421;27;20122;-61
2021/05/27 00:39:41;;;;;;;29.27;10.40;;;10.60;99.90;;;;;;5260273;27;20131;-62
2021/05/27 00:42:08;;;;;;;24.43;10.20;;;10.50;99.90;;;;;;5260959;27;20108;-62
2021/05/27 00:44:37;;;;;;;32.83;11.30;;;10.60;99.90;;;;;;5259678;27;20466;-64
2021/05/27 00:47:10;;;;;;;23.93;10.83;;;10.60;99.90;;;;;;5261557;27;20159;-64
2021/05/27 00:49:37;;;;;;;24.33;11.10;;;10.60;99.90;;;;;;5261351;27;20108;-64
2021/05/27 00:52:04;;;;;;;25.17;11.30;;;10.50;99.90;;;;;;5260330;27;20111;-61
2021/05/27 00:54:31;;;;;;;30.33;10.87;;;10.40;99.90;;;;;;5260913;27;20130;-63
2021/05/27 00:56:57;;;;;;;27.63;10.60;;;10.40;99.90;;;;;;5260961;27;20163;-63
2021/05/27 00:59:24;;;;;;;26.73;11.00;;;10.40;99.90;;;;;;5260473;27;20107;-64
2021/05/27 01:01:51;;;;;;;25.40;11.53;;;10.50;99.90;;;;;;5261194;27;20154;-62
2021/05/27 01:04:19;;;;;;;25.30;11.43;;;10.50;99.90;;;;;;5261865;27;20107;-62
2021/05/27 01:06:46;;;;;;;24.00;10.73;;;10.40;99.90;;;;;;5263664;27;20192;-63
2021/05/27 01:09:12;;;;;;;35.03;12.00;;;10.50;99.90;;;;;;5261538;27;20115;-64
2021/05/27 01:11:39;;;;;;;29.77;12.67;;;10.40;99.90;;;;;;5261444;27;20119;-63
2021/05/27 01:14:12;;;;;;;26.57;12.47;;;10.50;99.90;;;;;;5261523;27;20110;-63
2021/05/27 01:16:38;;;;;;;32.17;12.73;;;10.50;99.90;;;;;;5261722;27;20489;-62
2021/05/27 01:19:04;;;;;;;32.27;12.57;;;10.50;99.90;;;;;;5261700;27;20113;-61
2021/05/27 01:21:33;;;;;;;24.93;12.43;;;10.40;99.90;;;;;;5262087;27;20142;-64
2021/05/27 01:24:00;;;;;;;32.47;13.10;;;10.30;99.90;;;;;;5260993;27;20182;-64
2021/05/27 01:26:27;;;;;;;31.93;14.13;;;10.30;99.90;;;;;;5261547;27;20114;-63
2021/05/27 01:28:53;;;;;;;27.53;12.77;;;10.30;99.90;;;;;;5261544;27;20593;-64
2021/05/27 01:31:20;;;;;;;29.30;13.17;;;10.40;99.90;;;;;;5261606;27;20452;-61
2021/05/27 01:33:46;;;;;;;27.53;11.93;;;10.20;99.90;;;;;;5261609;27;20161;-62
2021/05/27 01:36:13;;;;;;;27.27;13.60;;;10.30;99.90;;;;;;5262047;27;20104;-65
2021/05/27 01:38:39;;;;;;;28.77;12.90;;;10.30;99.90;;;;;;5262110;27;20123;-64
2021/05/27 01:41:08;;;;;;;27.10;13.67;;;10.30;99.90;;;;;;5263256;27;20128;-66
2021/05/27 01:43:35;;;;;;;25.50;11.77;;;10.30;99.90;;;;;;5263961;27;20139;-65
2021/05/27 01:46:01;;;;;;;30.07;13.03;;;10.30;99.90;;;;;;5260958;27;20141;-63
2021/05/27 01:48:28;;;;;;;32.87;13.53;;;10.40;99.90;;;;;;5262067;27;20442;-64
2021/05/27 01:50:54;;;;;;;29.03;12.20;;;10.40;99.90;;;;;;5261557;27;20110;-63
2021/05/27 01:53:20;;;;;;;34.23;13.60;;;10.30;99.90;;;;;;5261265;27;20123;-63
2021/05/27 01:55:48;;;;;;;39.30;13.97;;;10.40;99.90;;;;;;5261550;27;20530;-63
2021/05/27 01:58:17;;;;;;;25.13;12.73;;;10.30;99.90;;;;;;5261526;27;20122;-63
2021/05/27 02:00:44;;;;;;;35.13;12.70;;;10.30;99.90;;;;;;5263540;27;20156;-63
2021/05/27 02:03:11;;;;;;;22.23;12.50;;;10.40;99.90;;;;;;5261269;27;20190;-63
2021/05/27 02:05:37;;;;;;;35.43;13.27;;;10.40;99.90;;;;;;5260737;27;20168;-62
2021/05/27 02:08:04;;;;;;;38.63;13.40;;;10.40;99.90;;;;;;5262112;27;20125;-63
2021/05/27 02:10:31;;;;;;;25.93;12.63;;;10.40;99.90;;;;;;5261157;27;20122;-63
2021/05/27 02:12:57;;;;;;;31.77;13.13;;;10.40;99.90;;;;;;5259854;27;20133;-65
2021/05/27 02:15:25;;;;;;;27.00;12.73;;;10.30;99.90;;;;;;5261135;27;20110;-64
2021/05/27 02:17:51;;;;;;;30.50;14.73;;;10.30;99.90;;;;;;5261274;27;20144;-64
2021/05/27 02:20:17;;;;;;;29.17;12.70;;;10.30;99.90;;;;;;5261455;27;20124;-63
2021/05/27 02:22:44;;;;;;;31.07;12.50;;;10.30;99.90;;;;;;5261182;27;20198;-64
2021/05/27 02:25:14;;;;;;;35.30;14.63;;;10.40;99.90;;;;;;5261467;27;20122;-65
2021/05/27 02:27:40;;;;;;;29.03;13.17;;;10.30;99.90;;;;;;5263709;27;20110;-63
2021/05/27 02:30:08;;;;;;;33.73;13.60;;;10.30;99.90;;;;;;5261257;27;20540;-63
2021/05/27 02:32:35;;;;;;;31.37;12.60;;;10.30;99.90;;;;;;5260360;27;20514;-64
2021/05/27 02:35:02;;;;;;;32.70;12.57;;;10.30;99.90;;;;;;5260433;27;20566;-63
2021/05/27 02:37:34;;;;;;;34.27;13.10;;;10.30;99.90;;;;;;5259556;27;20115;-63
2021/05/27 02:40:05;;;;;;;34.57;13.40;;;10.30;99.90;;;;;;5260261;27;20118;-64
2021/05/27 02:42:31;;;;;;;40.80;14.40;;;10.30;99.90;;;;;;5262925;27;20527;-64
2021/05/27 02:44:58;;;;;;;27.50;13.10;;;10.20;99.90;;;;;;5261883;27;20503;-63
2021/05/27 02:47:24;;;;;;;33.30;12.57;;;10.30;99.90;;;;;;5259740;27;20122;-63
2021/05/27 02:49:52;;;;;;;27.60;12.63;;;10.40;99.90;;;;;;5260236;27;20173;-65
2021/05/27 02:52:24;;;;;;;24.93;12.07;;;10.40;99.90;;;;;;5260374;27;20458;-65
2021/05/27 02:54:54;;;;;;;19.93;11.30;;;10.40;99.90;;;;;;5260014;27;20139;-65
2021/05/27 02:57:21;;;;;;;34.37;12.50;;;10.40;99.90;;;;;;5260941;27;20114;-63
2021/05/27 02:59:47;;;;;;;25.20;13.37;;;10.30;99.90;;;;;;5259556;27;20558;-63
2021/05/27 03:02:16;;;;;;;27.37;12.80;;;10.30;99.90;;;;;;5263067;27;20122;-63
2021/05/27 03:04:45;;;;;;;35.80;13.07;;;10.30;99.90;;;;;;5260050;27;20111;-62
2021/05/27 03:07:16;;;;;;;30.87;13.37;;;10.30;99.90;;;;;;5261361;27;20533;-61
2021/05/27 03:09:42;;;;;;;25.47;12.23;;;10.20;99.90;;;;;;5262498;27;20112;-65
2021/05/27 03:12:09;;;;;;;28.73;11.70;;;10.20;99.90;;;;;;5260999;27;20422;-62
2021/05/27 03:14:36;;;;;;;28.40;11.87;;;10.20;99.90;;;;;;5262394;27;20174;-61
2021/05/27 03:17:02;;;;;;;22.07;11.57;;;10.20;99.90;;;;;;5260980;27;20109;-62
2021/05/27 03:19:30;;;;;;;28.10;11.57;;;10.10;99.90;;;;;;5262228;27;20439;-62
2021/05/27 03:21:56;;;;;;;30.03;11.90;;;10.10;99.90;;;;;;5260705;27;20142;-61
2021/05/27 03:24:24;;;;;;;28.77;11.97;;;10.10;99.90;;;;;;5260816;27;20140;-63
2021/05/27 03:26:52;;;;;;;29.67;11.70;;;10.10;99.90;;;;;;5260947;27;20129;-62
2021/05/27 03:29:18;;;;;;;28.50;11.87;;;10.00;99.90;;;;;;5263311;27;20107;-63
2021/05/27 03:31:45;;;;;;;26.93;11.47;;;10.10;99.90;;;;;;5260728;27;20130;-62
2021/05/27 03:34:11;;;;;;;28.50;11.83;;;10.10;99.90;;;;;;5260316;27;20407;-65
2021/05/27 03:36:37;;;;;;;26.00;11.67;;;10.10;99.90;;;;;;5262476;27;20114;-64
2021/05/27 03:39:06;;;;;;;23.23;10.60;;;10.20;99.90;;;;;;5261003;27;20107;-64
2021/05/27 03:41:33;;;;;;;26.07;11.53;;;10.00;99.90;;;;;;5260715;27;20123;-63
2021/05/27 03:44:01;;;;;;;31.53;11.20;;;10.00;99.90;;;;;;5261381;27;20419;-62
2021/05/27 03:46:28;;;;;;;26.97;11.60;;;10.00;99.90;;;;;;5261502;27;20126;-63
2021/05/27 03:48:54;;;;;;;22.23;10.00;;;10.00;99.90;;;;;;5260745;27;20108;-63
2021/05/27 03:51:20;;;;;;;26.77;11.17;;;10.00;99.90;;;;;;5262947;27;20531;-63
2021/05/27 03:53:47;;;;;;;24.83;11.00;;;10.00;99.90;;;;;;5260916;27;20420;-66
2021/05/27 03:56:13;;;;;;;29.63;12.30;;;10.00;99.90;;;;;;5260246;27;20233;-65
2021/05/27 04:01:25;;;;;;;30.63;13.47;;;10.00;99.90;;;;;;5261005;27;20139;-63
2021/05/27 04:09:20;;;;;;;28.37;11.80;;;10.00;99.90;;;;;;5260064;27;20134;-65
2021/05/27 04:11:46;;;;;;;29.70;10.60;;;10.00;99.90;;;;;;5260726;27;20184;-63
2021/05/27 04:14:13;;;;;;;25.90;11.13;;;10.00;99.90;;;;;;5261654;27;20136;-64
2021/05/27 04:16:43;;;;;;;24.40;11.10;;;10.10;99.90;;;;;;5259982;27;20528;-64
2021/05/27 04:19:09;;;;;;;26.27;9.97;;;10.10;99.90;;;;;;5260676;27;20377;-62
2021/05/27 04:21:35;;;;;;;23.63;10.13;;;10.10;99.90;;;;;;5261819;27;20110;-62
2021/05/27 04:24:02;;;;;;;25.97;9.73;;;10.10;99.90;;;;;;5259746;27;20161;-65
2021/05/27 04:26:28;;;;;;;38.13;11.63;;;10.10;99.90;;;;;;5261818;27;20114;-65
2021/05/27 04:28:54;;;;;;;28.97;11.83;;;10.10;99.90;;;;;;5260747;27;20118;-64
2021/05/27 04:31:22;;;;;;;26.50;11.00;;;10.10;99.90;;;;;;5260057;27;20133;-63
2021/05/27 04:33:53;;;;;;;29.07;12.13;;;10.10;99.90;;;;;;5261448;27;20499;-62
2021/05/27 04:36:20;;;;;;;19.97;9.93;;;10.10;99.90;;;;;;5260910;27;20138;-62
2021/05/27 04:38:48;;;;;;;24.93;10.23;;;10.10;99.90;;;;;;5260915;27;20108;-63
2021/05/27 04:41:15;;;;;;;25.13;10.90;;;10.30;99.90;;;;;;5260396;27;20110;-64
2021/05/27 04:43:42;;;;;;;26.60;9.73;;;10.20;99.90;;;;;;5260697;27;20124;-62
2021/05/27 04:46:09;;;;;;;26.93;10.50;;;10.10;99.90;;;;;;5260404;27;20153;-64
2021/05/27 04:48:37;;;;;;;34.37;11.70;;;10.10;99.90;;;;;;5261755;27;20116;-62
2021/05/27 04:51:04;;;;;;;31.10;10.83;;;10.10;99.90;;;;;;5260354;27;20147;-62
2021/05/27 04:53:30;;;;;;;25.60;10.50;;;10.10;99.90;;;;;;5260149;27;20126;-63
2021/05/27 04:55:58;;;;;;;24.97;10.90;;;10.10;99.90;;;;;;5259787;27;20132;-64
2021/05/27 04:58:24;;;;;;;29.10;10.80;;;10.20;99.90;;;;;;5259972;27;20409;-64
2021/05/27 05:00:50;;;;;;;23.93;10.73;;;10.20;99.90;;;;;;5261631;27;20139;-64
2021/05/27 05:03:17;;;;;;;29.17;10.07;;;10.20;99.90;;;;;;5262140;27;20125;-64
2021/05/27 05:05:45;;;;;;;23.67;10.90;;;10.10;99.90;;;;;;5260811;27;20109;-62
2021/05/27 05:08:14;;;;;;;28.83;11.83;;;10.20;99.90;;;;;;5260534;27;20130;-61
2021/05/27 05:10:42;;;;;;;30.13;10.50;;;10.10;99.90;;;;;;5260282;27;20115;-63
2021/05/27 05:13:08;;;;;;;34.27;12.03;;;10.10;99.90;;;;;;5260446;27;20111;-62
2021/05/27 05:15:37;;;;;;;35.33;11.67;;;10.20;99.90;;;;;;5260128;27;20574;-62
2021/05/27 05:18:06;;;;;;;25.40;10.07;;;10.20;99.90;;;;;;5260553;27;20164;-62
2021/05/27 05:20:36;;;;;;;34.03;12.53;;;10.20;99.90;;;;;;5260748;27;20149;-64
2021/05/27 05:23:04;;;;;;;30.03;11.07;;;10.30;99.90;;;;;;5259884;27;20485;-66
2021/05/27 05:25:36;;;;;;;31.50;12.03;;;10.20;99.90;;;;;;5259720;27;20471;-64
2021/05/27 05:28:03;;;;;;;34.67;11.33;;;10.20;99.90;;;;;;5259987;27;20115;-63
2021/05/27 05:30:31;;;;;;;24.30;10.77;;;10.20;99.90;;;;;;5260116;27;20145;-64
2021/05/27 05:33:01;;;;;;;30.57;11.10;;;10.10;99.90;;;;;;5260740;27;20507;-62
2021/05/27 05:35:28;;;;;;;29.17;10.70;;;10.20;99.90;;;;;;5260217;27;20149;-66
2021/05/27 05:37:55;;;;;;;28.53;10.00;;;10.20;99.90;;;;;;5260677;27;20401;-62
2021/05/27 05:40:24;;;;;;;30.37;11.13;;;10.30;99.90;;;;;;5260556;27;20136;-63
2021/05/27 05:42:51;;;;;;;26.07;9.80;;;10.30;99.90;;;;;;5259938;27;20114;-65
2021/05/27 05:45:18;;;;;;;27.30;11.63;;;10.30;99.90;;;;;;5259950;27;20434;-63
2021/05/27 05:47:48;;;;;;;26.03;10.07;;;10.30;99.90;;;;;;5259316;27;20142;-67
2021/05/27 05:50:45;;;;;;;26.93;10.63;;;10.20;99.90;;;;;;5260595;27;20117;-63
2021/05/27 05:53:14;;;;;;;28.17;11.63;;;10.20;99.90;;;;;;5261033;27;20185;-64
2021/05/27 05:55:41;;;;;;;29.87;9.60;;;10.10;99.90;;;;;;5261264;27;20108;-63
2021/05/27 05:58:08;;;;;;;28.13;10.57;;;10.20;99.90;;;;;;5260047;27;20111;-63
2021/05/27 06:00:35;;;;;;;29.73;11.20;;;10.20;99.90;;;;;;5261337;27;20126;-65
2021/05/27 06:03:02;;;;;;;25.57;10.10;;;10.20;99.90;;;;;;5261028;27;20107;-65
2021/05/27 06:05:28;;;;;;;30.37;11.00;;;10.10;99.90;;;;;;5260662;27;20517;-63
2021/05/27 06:07:55;;;;;;;33.73;10.80;;;10.20;99.90;;;;;;5260734;27;20116;-63
2021/05/27 06:10:22;;;;;;;34.27;10.67;;;10.10;99.90;;;;;;5262642;27;20122;-64
2021/05/27 06:12:50;;;;;;;21.73;9.63;;;10.10;99.90;;;;;;5263554;27;20589;-63
2021/05/27 06:15:20;;;;;;;24.67;9.77;;;10.10;99.90;;;;;;5262947;27;20471;-62
2021/05/27 06:17:48;;;;;;;20.00;9.20;;;10.10;99.90;;;;;;5262895;27;20140;-63
2021/05/27 06:20:17;;;;;;;31.03;10.43;;;10.20;99.90;;;;;;5260375;27;20152;-63
2021/05/27 06:22:46;;;;;;;24.40;9.43;;;10.10;99.90;;;;;;5260783;27;20106;-65
2021/05/27 06:25:13;;;;;;;33.10;9.87;;;10.10;99.90;;;;;;5259894;27;20136;-62
2021/05/27 06:27:40;;;;;;;29.73;10.90;;;10.10;99.90;;;;;;5260891;27;20120;-64
2021/05/27 06:30:09;;;;;;;31.50;10.73;;;10.10;99.90;;;;;;5262999;27;20577;-63
2021/05/27 06:32:37;;;;;;;27.57;10.43;;;10.10;99.90;;;;;;5261198;27;20129;-64
2021/05/27 06:35:08;;;;;;;33.53;11.43;;;10.10;99.90;;;;;;5261255;27;20173;-61
2021/05/27 06:37:37;;;;;;;28.37;9.97;;;10.20;99.90;;;;;;5261606;27;20137;-65
2021/05/27 06:40:04;;;;;;;26.17;10.33;;;10.20;99.90;;;;;;5260623;27;20121;-61
2021/05/27 06:42:31;;;;;;;32.57;9.97;;;10.20;99.90;;;;;;5261928;27;20135;-63
2021/05/27 06:44:57;;;;;;;25.90;10.47;;;10.30;99.90;;;;;;5260438;27;20133;-62
2021/05/27 06:47:24;;;;;;;27.83;10.47;;;10.30;99.90;;;;;;5260860;27;20111;-64
2021/05/27 06:49:51;;;;;;;23.47;9.33;;;10.30;99.90;;;;;;5261182;27;20164;-63
2021/05/27 06:52:17;;;;;;;28.83;11.13;;;10.40;99.90;;;;;;5260895;27;20123;-62
2021/05/27 06:54:46;;;;;;;30.57;9.73;;;10.30;99.90;;;;;;5261799;27;20103;-63
2021/05/27 06:57:12;;;;;;;24.53;9.97;;;10.30;99.90;;;;;;5260761;27;20442;-62
2021/05/27 06:59:39;;;;;;;24.63;10.40;;;10.30;99.90;;;;;;5260916;27;20129;-63
2021/05/27 07:02:07;;;;;;;20.00;10.23;;;10.40;99.90;;;;;;5261657;27;20123;-62
2021/05/27 07:04:35;;;;;;;22.50;9.90;;;10.40;99.90;;;;;;5260609;27;20107;-63
2021/05/27 07:07:01;;;;;;;27.87;10.00;;;10.50;99.90;;;;;;5261050;27;20162;-60
2021/05/27 07:09:27;;;;;;;40.20;10.60;;;10.50;99.90;;;;;;5261888;27;20123;-62
2021/05/27 07:11:54;;;;;;;30.43;11.73;;;10.50;99.90;;;;;;5260826;27;20113;-65
2021/05/27 07:14:20;;;;;;;19.70;9.23;;;10.40;99.90;;;;;;5261205;27;20115;-64
2021/05/27 07:16:47;;;;;;;30.63;9.73;;;10.40;99.90;;;;;;5261471;27;20138;-64
2021/05/27 07:19:13;;;;;;;31.23;9.97;;;10.40;99.90;;;;;;5260622;27;20110;-63
2021/05/27 07:21:41;;;;;;;19.63;8.20;;;10.40;99.90;;;;;;5260942;27;20109;-64
2021/05/27 07:24:07;;;;;;;22.63;8.27;;;10.50;99.90;;;;;;5260207;27;20186;-62
2021/05/27 07:26:34;;;;;;;20.33;8.87;;;10.50;99.90;;;;;;5260119;27;20114;-63
2021/05/27 07:29:01;;;;;;;20.70;8.53;;;10.70;99.90;;;;;;5260079;27;20111;-63
2021/05/27 07:31:27;;;;;;;28.97;10.50;;;10.60;99.90;;;;;;5260675;27;20155;-64
2021/05/27 07:33:55;;;;;;;27.47;9.00;;;10.70;99.90;;;;;;5261116;27;20110;-64
2021/05/27 07:36:22;;;;;;;27.93;9.50;;;10.80;99.90;;;;;;5260631;27;20116;-64
2021/05/27 07:38:49;;;;;;;25.07;9.90;;;10.80;99.90;;;;;;5261341;27;20111;-62
2021/05/27 07:41:15;;;;;;;27.30;10.17;;;10.60;99.90;;;;;;5260856;27;20594;-64
2021/05/27 07:43:44;;;;;;;23.87;9.87;;;10.70;99.90;;;;;;5260928;27;20519;-63
2021/05/27 07:46:10;;;;;;;35.57;10.67;;;10.80;99.90;;;;;;5259366;27;20138;-63
2021/05/27 07:48:37;;;;;;;24.13;9.13;;;10.90;99.90;;;;;;5259447;27;20165;-63
2021/05/27 07:51:05;;;;;;;26.07;10.13;;;10.90;99.90;;;;;;5260388;27;20108;-63
2021/05/27 07:53:31;;;;;;;27.20;10.50;;;10.90;99.90;;;;;;5260767;27;20151;-62
2021/05/27 07:55:58;;;;;;;27.57;8.87;;;10.90;99.90;;;;;;5260329;27;20108;-62
2021/05/27 07:58:25;;;;;;;30.23;9.60;;;10.90;99.90;;;;;;5260338;27;20107;-62
2021/05/27 08:00:56;;;;;;;23.43;9.53;;;10.90;99.90;;;;;;5260950;27;20503;-63
2021/05/27 08:03:22;;;;;;;26.00;10.40;;;11.00;99.90;;;;;;5262956;27;20109;-62
2021/05/27 08:05:49;;;;;;;29.27;9.30;;;11.00;99.90;;;;;;5260339;27;20108;-62
2021/05/27 08:08:21;;;;;;;30.70;8.90;;;11.00;99.90;;;;;;5260141;27;20107;-62
2021/05/27 08:10:49;;;;;;;27.43;10.30;;;11.10;99.90;;;;;;5260239;27;20138;-62
2021/05/27 08:13:19;;;;;;;23.97;9.50;;;11.00;99.90;;;;;;5261759;27;20129;-63
2021/05/27 08:15:45;;;;;;;30.63;9.70;;;10.90;99.90;;;;;;5262259;27;20150;-63
2021/05/27 08:18:12;;;;;;;17.40;8.20;;;11.00;99.90;;;;;;5255488;27;20168;-63
2021/05/27 08:20:38;;;;;;;26.20;9.10;;;10.90;99.90;;;;;;5259843;27;20137;-63
2021/05/27 08:23:05;;;;;;;20.03;8.50;;;10.90;99.90;;;;;;5259815;27;20134;-63
2021/05/27 08:25:31;;;;;;;28.93;9.23;;;10.80;99.90;;;;;;5260384;27;20178;-62
2021/05/27 08:27:58;;;;;;;22.60;8.33;;;11.00;99.90;;;;;;5259924;27;20125;-62
2021/05/27 08:30:25;;;;;;;23.23;9.03;;;10.90;99.90;;;;;;5261197;27;20107;-63
2021/05/27 08:32:52;;;;;;;21.80;7.83;;;10.90;99.90;;;;;;5260360;27;20523;-63
2021/05/27 08:35:20;;;;;;;20.50;8.47;;;11.00;99.90;;;;;;5262712;27;20130;-63
2021/05/27 08:37:47;;;;;;;21.47;7.60;;;11.10;99.90;;;;;;5260924;27;20145;-64
2021/05/27 08:40:14;;;;;;;19.73;7.90;;;11.20;99.90;;;;;;5260956;27;20142;-64
2021/05/27 08:42:42;;;;;;;23.20;7.93;;;11.20;99.90;;;;;;5261160;27;20422;-63
2021/05/27 08:45:10;;;;;;;22.57;8.33;;;11.20;99.90;;;;;;5260043;27;20157;-63
2021/05/27 08:47:37;;;;;;;21.57;9.17;;;11.20;99.90;;;;;;5260093;27;20123;-64
2021/05/27 08:50:05;;;;;;;21.10;9.43;;;11.30;99.90;;;;;;5260281;27;20105;-64
2021/05/27 08:52:32;;;;;;;25.23;8.83;;;11.30;99.90;;;;;;5260083;27;20119;-65
2021/05/27 08:54:59;;;;;;;21.10;8.87;;;11.40;99.90;;;;;;5260097;27;20107;-64
2021/05/27 08:57:26;;;;;;;26.50;8.17;;;11.30;99.90;;;;;;5262313;27;20151;-64
2021/05/27 08:59:52;;;;;;;16.97;8.10;;;11.60;99.90;;;;;;5261803;27;20111;-65
2021/05/27 09:02:18;;;;;;;25.30;8.00;;;11.60;99.90;;;;;;5260343;27;20103;-64
2021/05/27 09:04:46;;;;;;;20.47;6.80;;;11.70;99.90;;;;;;5259986;27;20142;-64
2021/05/27 09:07:12;;;;;;;20.37;8.97;;;11.80;99.90;;;;;;5260299;27;20145;-64
2021/05/27 09:09:54;;;;;;;22.83;8.53;;;11.50;99.90;;;;;;5260324;27;20512;-62
2021/05/27 09:12:28;;;;;;;24.20;8.97;;;11.50;99.90;;;;;;5261443;27;20177;-63
2021/05/27 09:14:55;;;;;;;19.37;7.63;;;11.40;99.90;;;;;;5262603;27;20114;-63
2021/05/27 09:17:21;;;;;;;19.07;7.90;;;11.30;99.90;;;;;;5262412;27;20127;-64
2021/05/27 09:20:17;;;;;;;23.03;8.10;;;11.30;99.90;;;;;;5259992;27;20134;-66
2021/05/27 09:22:45;;;;;;;37.90;9.37;;;11.30;99.90;;;;;;5260902;27;20123;-61
2021/05/27 09:25:25;;;;;;;21.93;8.83;;;11.20;99.90;;;;;;5261088;27;20602;-62
2021/05/27 09:27:51;;;;;;;22.40;8.60;;;11.30;99.90;;;;;;5261473;27;20118;-63
2021/05/27 09:30:19;;;;;;;30.83;9.07;;;11.30;99.90;;;;;;5260306;27;20108;-62
2021/05/27 09:32:46;;;;;;;23.57;8.70;;;11.40;99.90;;;;;;5262306;27;20111;-64
2021/05/27 09:35:14;;;;;;;25.00;8.37;;;11.50;99.90;;;;;;5261609;27;20109;-65
2021/05/27 09:37:47;;;;;;;23.47;8.83;;;11.50;99.90;;;;;;5261810;27;20111;-64
2021/05/27 09:40:32;;;;;;;25.87;9.30;;;11.60;99.90;;;;;;5262640;27;20155;-66
2021/05/27 09:42:59;;;;;;;24.50;9.00;;;11.70;99.90;;;;;;5263678;27;20109;-62
2021/05/27 09:45:30;;;;;;;25.47;9.60;;;11.70;99.90;;;;;;5260893;27;20159;-65
2021/05/27 09:47:57;;;;;;;26.17;9.03;;;11.60;99.90;;;;;;5260617;27;20125;-63
2021/05/27 09:50:31;;;;;;;23.07;8.77;;;11.60;99.90;;;;;;5261484;27;20123;-63
2021/05/27 09:53:14;;;;;;;19.13;8.37;;;11.70;99.90;;;;;;5261681;27;20133;-65
2021/05/27 09:55:41;;;;;;;30.23;9.13;;;11.50;99.90;;;;;;5261164;27;20107;-64
2021/05/27 09:58:11;;;;;;;25.63;9.57;;;11.40;99.90;;;;;;5259805;27;20157;-62
2021/05/27 10:00:38;;;;;;;28.67;9.20;;;11.50;99.90;;;;;;5260274;27;20169;-61
2021/05/27 10:03:41;;;;;;;22.93;8.67;;;11.50;99.90;;;;;;5258844;27;20448;-62
2021/05/27 10:06:20;;;;;;;26.70;9.00;;;11.60;99.90;;;;;;5171490;27;20171;-62
2021/05/27 10:08:54;;;;;;;26.57;9.30;;;11.60;99.90;;;;;;5169541;27;20302;-63
2021/05/27 10:11:22;;;;;;;24.83;8.67;;;11.60;99.90;;;;;;5170969;27;20182;-62
2021/05/27 10:14:03;;;;;;;17.07;7.90;;;11.50;99.90;;;;;;5171349;27;20116;-62
2021/05/27 10:16:30;;;;;;;21.20;7.93;;;11.60;99.90;;;;;;5171633;27;20146;-63
2021/05/27 10:19:00;;;;;;;22.03;8.60;;;11.70;99.90;;;;;;5173289;27;20105;-63
2021/05/27 10:21:31;;;;;;;23.60;8.70;;;11.50;99.90;;;;;;5173790;27;20118;-62
2021/05/27 10:23:59;;;;;;;23.83;9.43;;;11.50;99.90;;;;;;5173973;27;20226;-62
2021/05/27 10:26:26;;;;;;;24.27;10.30;;;11.40;99.90;;;;;;5174350;27;20136;-61
2021/05/27 10:28:54;;;;;;;29.17;8.77;;;11.30;99.90;;;;;;5173696;27;20120;-64
2021/05/27 10:31:24;;;;;;;21.27;8.27;;;11.30;99.90;;;;;;5173571;27;20129;-62
2021/05/27 10:33:53;;;;;;;22.60;8.33;;;11.30;99.90;;;;;;5175700;27;20140;-62
2021/05/27 10:36:19;;;;;;;20.13;9.17;;;11.30;99.90;;;;;;5195990;27;20542;-64
2021/05/27 10:38:50;;;;;;;24.37;10.33;;;11.40;99.90;;;;;;5260835;27;20115;-61
2021/05/27 10:41:22;;;;;;;23.53;9.30;;;11.60;99.90;;;;;;5262828;27;20110;-62
2021/05/27 10:44:14;;;;;;;29.80;9.80;;;11.50;99.90;;;;;;5261437;27;20126;-62
2021/05/27 10:47:09;;;;;;;24.77;9.67;;;11.40;99.90;;;;;;5262104;27;20126;-62
2021/05/27 10:49:49;;;;;;;28.50;10.50;;;11.40;99.90;;;;;;5260682;27;20126;-62
2021/05/27 10:52:36;;;;;;;27.07;9.63;;;11.30;99.90;;;;;;5261235;27;20134;-62
2021/05/27 10:55:04;;;;;;;25.90;9.73;;;11.30;99.90;;;;;;5260352;27;20609;-62
2021/05/27 10:57:51;;;;;;;28.07;9.87;;;11.40;99.90;;;;;;5261082;27;20157;-62
2021/05/27 11:00:54;;;;;;;35.37;11.27;;;11.30;99.90;;;;;;5260664;27;20457;-62
2021/05/27 11:03:48;;;;;;;28.53;10.30;;;11.30;99.90;;;;;;5260927;27;20124;-62
2021/05/27 11:06:33;;;;;;;28.60;9.93;;;11.20;99.90;;;;;;5260714;27;20108;-62
2021/05/27 11:09:31;;;;;;;21.17;9.93;;;11.20;99.90;;;;;;5260982;27;20107;-63
2021/05/27 11:12:09;;;;;;;25.97;9.27;;;11.40;99.90;;;;;;5261053;27;20118;-63
2021/05/27 11:14:40;;;;;;;20.70;9.33;;;11.70;99.90;;;;;;5260754;27;20172;-62
2021/05/27 11:17:22;;;;;;;26.53;8.60;;;12.10;99.90;;;;;;5262406;27;20121;-61
2021/05/27 11:19:55;;;;;;;19.70;8.50;;;12.30;99.90;;;;;;5260034;27;20107;-63
2021/05/27 11:22:52;;;;;;;18.47;7.47;;;12.80;99.90;;;;;;5262228;27;20520;-63
2021/05/27 11:25:30;;;;;;;12.73;7.30;;;13.40;99.90;;;;;;5260455;27;20201;-63
2021/05/27 11:28:18;;;;;;;18.20;6.83;;;14.00;99.90;;;;;;5261892;27;20135;-63
2021/05/27 11:30:52;;;;;;;16.00;6.63;;;14.40;99.90;;;;;;5263134;27;20127;-64
2021/05/27 11:33:42;;;;;;;20.73;6.77;;;14.50;99.90;;;;;;5260909;27;20103;-63
2021/05/27 11:36:18;;;;;;;16.07;6.23;;;14.10;99.90;;;;;;5260570;27;20127;-63
2021/05/27 11:38:46;;;;;;;14.33;6.40;;;13.90;99.90;;;;;;5260215;27;20539;-63
2021/05/27 11:41:17;;;;;;;14.93;6.53;;;13.90;99.90;;;;;;5260524;27;20122;-62
2021/05/27 11:43:59;;;;;;;16.47;6.17;;;13.60;99.90;;;;;;5262932;27;20157;-63
2021/05/27 11:46:29;;;;;;;21.03;6.60;;;13.40;99.90;;;;;;5258277;27;20167;-63
2021/05/27 11:48:58;;;;;;;18.50;6.90;;;13.10;99.90;;;;;;5260819;27;20106;-64
2021/05/27 11:51:27;;;;;;;18.97;7.03;;;13.00;99.90;;;;;;5261454;27;20134;-63
2021/05/27 11:53:57;;;;;;;17.37;7.10;;;12.90;99.90;;;;;;5260518;27;20412;-64
2021/05/27 11:56:41;;;;;;;17.10;5.80;;;12.80;99.90;;;;;;5260909;27;20118;-63
2021/05/27 11:59:12;;;;;;;20.13;6.70;;;12.70;99.90;;;;;;5260169;27;20166;-64
2021/05/27 12:01:40;;;;;;;16.23;6.97;;;12.70;99.90;;;;;;5260590;27;20225;-62
2021/05/27 12:04:09;;;;;;;15.63;7.07;;;12.60;99.90;;;;;;5260901;27;20108;-63
2021/05/27 12:06:59;;;;;;;20.67;8.03;;;12.50;99.90;;;;;;5261314;27;20528;-62
2021/05/27 12:09:36;;;;;;;18.13;7.23;;;12.60;99.90;;;;;;5261831;27;20137;-62
2021/05/27 12:12:29;;;;;;;14.47;5.40;;;12.90;99.90;;;;;;5260145;27;20146;-62
2021/05/27 12:14:58;;;;;;;22.60;6.63;;;13.40;99.90;;;;;;5261188;27;20172;-62
2021/05/27 12:17:30;;;;;;;21.03;5.57;;;13.50;99.90;;;;;;5260746;27;20122;-62
2021/05/27 12:20:07;;;;;;;15.50;6.03;;;13.90;99.90;;;;;;5259981;27;20126;-63
2021/05/27 12:23:03;;;;;;;11.73;4.83;;;14.60;99.90;;;;;;5196159;27;1759441;-62
2021/05/27 12:25:33;;;;;;;8.67;4.63;;;15.20;99.90;;;;;;5172896;27;20131;-62
2021/05/27 12:28:00;;;;;;;10.73;4.67;;;14.90;99.90;;;;;;5173372;27;20580;-63
2021/05/27 12:30:28;;;;;;;14.53;3.97;;;14.60;99.90;;;;;;5174262;27;20175;-62
2021/05/27 12:32:57;;;;;;;13.57;4.30;;;14.20;99.90;;;;;;5172297;27;20461;-62
2021/05/27 12:35:28;;;;;;;11.73;4.03;;;13.80;99.90;;;;;;5174112;27;20116;-63
2021/05/27 12:37:59;;;;;;;14.83;4.10;;;13.50;99.90;;;;;;5172310;27;20158;-62
2021/05/27 12:40:28;;;;;;;10.30;3.97;;;13.20;99.90;;;;;;5165696;27;20131;-62
2021/05/27 12:42:56;;;;;;;9.50;4.40;;;12.90;99.90;;;;;;5172961;27;20133;-62
2021/05/27 12:45:28;;;;;;;9.63;3.50;;;12.60;99.90;;;;;;5174163;27;20116;-62
2021/05/27 12:48:13;;;;;;;9.67;3.77;;;12.80;99.90;;;;;;5174006;27;20144;-63
2021/05/27 12:50:43;;;;;;;12.33;3.10;;;12.80;99.90;;;;;;5171202;27;20171;-62